Time;durP1;ratioP1;P1;durP2;ratioP2;P2;SDS_P1;SDS_P2;PMS_P1;PMS_P2;Temp;Humidity;BMP_temperature;BMP_pressure;BME280_temperature;BME280_humidity;BME280_pressure;Samples;Min_cycle;Max_cycle;Signal;HPM_P1;HPM_P2
2021/09/27 00:00:47;;;;;;;20.50;18.47;;;16.30;99.90;;;;;;5013595;28;20516;-63
2021/09/27 00:03:13;;;;;;;19.87;18.00;;;16.30;99.90;;;;;;5009921;28;20536;-63
2021/09/27 00:05:39;;;;;;;18.23;16.10;;;16.20;99.90;;;;;;5013882;28;20444;-64
2021/09/27 00:08:05;;;;;;;18.97;17.03;;;16.20;99.90;;;;;;5013149;28;20433;-64
2021/09/27 00:10:36;;;;;;;17.70;16.10;;;16.20;99.90;;;;;;5013872;28;20193;-63
2021/09/27 00:13:03;;;;;;;18.10;16.20;;;16.20;99.90;;;;;;5013113;28;20460;-64
2021/09/27 00:15:33;;;;;;;20.33;18.37;;;16.20;99.90;;;;;;5006278;28;20433;-63
2021/09/27 00:17:59;;;;;;;19.17;17.23;;;16.20;99.90;;;;;;5004654;28;20464;-63
2021/09/27 00:20:24;;;;;;;19.03;17.23;;;16.20;99.90;;;;;;5013316;28;20430;-64
2021/09/27 00:22:51;;;;;;;18.13;16.40;;;16.20;99.90;;;;;;5013370;28;20206;-63
2021/09/27 00:25:20;;;;;;;19.17;17.27;;;16.20;99.90;;;;;;5013396;28;20179;-64
2021/09/27 00:27:46;;;;;;;20.07;18.27;;;16.10;99.90;;;;;;5013063;28;20911;-63
2021/09/27 00:30:13;;;;;;;19.53;17.63;;;16.10;99.90;;;;;;5013330;28;20433;-64
2021/09/27 00:32:39;;;;;;;19.73;17.93;;;16.10;99.90;;;;;;5013280;28;20566;-63
2021/09/27 00:35:06;;;;;;;19.50;17.60;;;16.10;99.90;;;;;;5013255;28;20509;-63
2021/09/27 00:37:32;;;;;;;19.27;17.47;;;16.00;99.90;;;;;;5012895;28;20476;-64
2021/09/27 00:39:57;;;;;;;18.43;16.60;;;16.00;99.90;;;;;;5013011;28;20794;-63
2021/09/27 00:42:23;;;;;;;18.70;17.00;;;16.00;99.90;;;;;;5012757;28;20191;-63
2021/09/27 00:44:49;;;;;;;19.13;17.37;;;16.00;99.90;;;;;;5012798;28;20189;-63
2021/09/27 00:47:15;;;;;;;19.93;17.70;;;15.90;99.90;;;;;;5012507;28;20183;-64
2021/09/27 00:49:40;;;;;;;20.60;18.50;;;15.90;99.90;;;;;;5013082;28;20258;-64
2021/09/27 00:52:06;;;;;;;18.77;17.07;;;15.90;99.90;;;;;;5012746;28;20869;-64
2021/09/27 00:54:34;;;;;;;20.20;18.20;;;15.80;99.90;;;;;;5012695;28;20680;-64
2021/09/27 00:57:11;;;;;;;18.93;17.03;;;15.80;99.90;;;;;;5012666;28;20202;-63
2021/09/27 00:59:40;;;;;;;19.67;17.70;;;15.80;99.90;;;;;;5008824;28;20440;-63
2021/09/27 01:02:06;;;;;;;19.63;17.60;;;15.80;99.90;;;;;;5012750;28;21053;-63
2021/09/27 01:04:31;;;;;;;18.93;17.10;;;15.70;99.90;;;;;;5012740;28;20545;-64
2021/09/27 01:07:38;;;;;;;20.33;18.40;;;15.80;99.90;;;;;;5012673;28;20175;-64
2021/09/27 01:10:43;;;;;;;20.17;18.20;;;15.80;99.90;;;;;;5012560;28;20187;-64
2021/09/27 01:13:36;;;;;;;20.93;18.90;;;15.70;99.90;;;;;;5012506;28;20457;-64
2021/09/27 01:16:38;;;;;;;21.27;19.23;;;15.70;99.90;;;;;;5012517;28;20491;-63
2021/09/27 01:19:04;;;;;;;20.40;17.93;;;15.70;99.90;;;;;;4970747;28;20841;-64
2021/09/27 01:21:48;;;;;;;19.63;17.80;;;15.70;99.90;;;;;;5012428;28;20417;-63
2021/09/27 01:24:29;;;;;;;20.80;18.70;;;15.60;99.90;;;;;;5012062;28;20190;-64
2021/09/27 01:27:24;;;;;;;21.27;19.17;;;15.60;99.90;;;;;;5012374;28;20410;-64
2021/09/27 01:30:17;;;;;;;19.93;18.13;;;15.70;99.90;;;;;;5012274;28;20436;-63
2021/09/27 01:32:52;;;;;;;17.80;16.10;;;15.70;99.90;;;;;;5012248;28;20554;-64
2021/09/27 01:35:48;;;;;;;19.50;17.60;;;15.80;99.90;;;;;;5012275;28;20440;-64
2021/09/27 01:38:36;;;;;;;20.60;18.60;;;15.90;99.90;;;;;;5003828;28;20454;-63
2021/09/27 01:41:19;;;;;;;17.67;16.07;;;16.00;99.90;;;;;;5010908;28;20425;-64
2021/09/27 01:43:52;;;;;;;17.90;16.13;;;16.00;99.90;;;;;;5011777;28;20790;-64
2021/09/27 01:46:35;;;;;;;18.80;17.00;;;16.00;99.90;;;;;;5012131;28;20496;-64
2021/09/27 01:49:14;;;;;;;16.50;15.03;;;16.00;99.90;;;;;;5011660;28;20413;-63
2021/09/27 01:51:52;;;;;;;17.80;16.00;;;16.10;99.90;;;;;;5011961;28;20425;-64
2021/09/27 01:54:33;;;;;;;17.67;15.90;;;16.00;99.90;;;;;;4992557;28;20426;-64
2021/09/27 01:57:05;;;;;;;17.63;15.83;;;16.10;99.90;;;;;;4994541;28;20462;-64
2021/09/27 02:00:08;;;;;;;17.47;15.90;;;16.00;99.90;;;;;;5011758;28;20969;-64
2021/09/27 02:02:33;;;;;;;16.43;14.83;;;16.10;99.90;;;;;;5011932;28;20454;-63
2021/09/27 02:05:20;;;;;;;16.90;15.30;;;16.10;99.90;;;;;;5011868;28;20429;-64
2021/09/27 02:08:02;;;;;;;17.50;15.80;;;16.00;99.90;;;;;;4997801;28;20175;-63
2021/09/27 02:10:51;;;;;;;16.40;14.90;;;15.90;99.90;;;;;;5012036;28;20458;-63
2021/09/27 02:13:27;;;;;;;18.30;16.00;;;15.90;99.90;;;;;;5015731;28;20536;-63
2021/09/27 02:16:15;;;;;;;18.63;16.77;;;15.90;99.90;;;;;;5015801;28;20428;-63
2021/09/27 02:19:01;;;;;;;17.03;15.37;;;15.90;99.90;;;;;;5015263;28;20458;-63
2021/09/27 02:21:32;;;;;;;16.67;15.17;;;15.80;99.90;;;;;;5015455;28;20433;-63
2021/09/27 02:24:39;;;;;;;17.00;15.23;;;15.80;99.90;;;;;;5015504;28;20873;-63
2021/09/27 02:27:04;;;;;;;16.10;14.50;;;15.80;99.90;;;;;;5004746;28;20465;-63
2021/09/27 02:29:31;;;;;;;17.63;16.00;;;15.80;99.90;;;;;;5015251;28;20441;-63
2021/09/27 02:32:16;;;;;;;15.47;14.00;;;15.90;99.90;;;;;;5015366;28;20194;-63
2021/09/27 02:35:05;;;;;;;17.93;16.27;;;15.90;99.90;;;;;;5015208;28;20460;-64
2021/09/27 02:37:55;;;;;;;17.20;15.70;;;15.90;99.90;;;;;;5015100;28;20480;-64
2021/09/27 02:40:23;;;;;;;16.80;15.33;;;15.90;99.90;;;;;;5015372;28;20464;-64
2021/09/27 02:42:53;;;;;;;16.40;14.90;;;15.80;99.90;;;;;;5015361;28;20428;-64
2021/09/27 02:45:20;;;;;;;16.37;14.87;;;15.70;99.90;;;;;;5014859;28;20426;-63
2021/09/27 02:47:50;;;;;;;15.80;14.20;;;15.70;99.90;;;;;;5014791;28;20433;-63
2021/09/27 02:50:26;;;;;;;15.10;13.57;;;15.80;99.90;;;;;;5015012;28;20425;-63
2021/09/27 02:52:52;;;;;;;16.87;15.27;;;15.90;99.90;;;;;;5014974;28;20441;-63
2021/09/27 02:55:21;;;;;;;17.90;16.20;;;15.90;99.90;;;;;;5015012;28;20440;-64
2021/09/27 02:58:16;;;;;;;19.20;16.30;;;15.90;99.90;;;;;;5014830;28;20257;-64
2021/09/27 03:00:53;;;;;;;16.97;15.17;;;15.70;99.90;;;;;;5014674;28;20441;-64
2021/09/27 03:03:50;;;;;;;16.40;14.70;;;15.70;99.90;;;;;;5014779;28;20471;-64
2021/09/27 03:06:46;;;;;;;16.90;15.40;;;15.70;99.90;;;;;;5014882;28;20488;-64
2021/09/27 03:09:29;;;;;;;15.83;14.30;;;15.80;99.90;;;;;;5014595;28;20796;-64
2021/09/27 03:12:29;;;;;;;18.30;16.70;;;15.90;99.90;;;;;;5015080;28;20957;-64
2021/09/27 03:15:16;;;;;;;16.10;14.50;;;16.10;99.90;;;;;;5014647;28;20513;-64
2021/09/27 03:18:03;;;;;;;16.27;14.63;;;16.20;99.90;;;;;;5014216;28;20454;-63
2021/09/27 03:20:53;;;;;;;14.67;13.37;;;16.20;99.90;;;;;;5014332;28;20484;-63
2021/09/27 03:23:24;;;;;;;17.20;15.50;;;16.20;99.90;;;;;;5013612;28;20803;-63
2021/09/27 03:26:11;;;;;;;14.87;13.67;;;16.30;99.90;;;;;;5014657;28;20517;-63
2021/09/27 03:28:48;;;;;;;14.60;13.20;;;16.20;99.90;;;;;;5013770;28;20892;-64
2021/09/27 03:31:36;;;;;;;16.87;15.10;;;16.20;99.90;;;;;;5014291;28;20430;-63
2021/09/27 03:34:32;;;;;;;14.70;13.40;;;16.30;99.90;;;;;;5014065;28;20457;-64
2021/09/27 03:37:06;;;;;;;15.70;14.30;;;16.30;99.90;;;;;;5014107;28;20461;-64
2021/09/27 03:39:58;;;;;;;16.07;14.47;;;16.30;99.90;;;;;;5013635;28;20509;-63
2021/09/27 03:42:42;;;;;;;16.10;14.70;;;16.30;99.90;;;;;;5013901;28;20436;-63
2021/09/27 03:45:13;;;;;;;16.10;14.60;;;16.40;99.90;;;;;;5013848;28;20426;-63
2021/09/27 03:47:48;;;;;;;19.70;17.57;;;16.40;99.90;;;;;;5013634;28;20944;-63
2021/09/27 03:50:21;;;;;;;16.67;14.97;;;16.30;99.90;;;;;;5014110;28;20471;-63
2021/09/27 03:53:02;;;;;;;16.77;15.10;;;16.20;99.90;;;;;;5013795;28;20455;-64
2021/09/27 03:55:40;;;;;;;17.10;15.50;;;16.20;99.90;;;;;;5013788;28;20469;-64
2021/09/27 03:58:28;;;;;;;16.77;15.07;;;16.20;99.90;;;;;;4995010;28;20458;-64
2021/09/27 04:01:02;;;;;;;16.33;14.73;;;16.20;99.90;;;;;;5013211;28;20430;-63
2021/09/27 04:04:06;;;;;;;16.10;14.53;;;16.30;99.90;;;;;;5013461;28;20444;-63
2021/09/27 04:06:42;;;;;;;16.10;14.57;;;16.30;99.90;;;;;;5013872;28;20418;-64
2021/09/27 04:09:12;;;;;;;18.23;16.50;;;16.40;99.90;;;;;;5013237;28;20961;-64
2021/09/27 04:11:46;;;;;;;16.60;14.90;;;16.40;99.90;;;;;;5013718;28;20507;-64
2021/09/27 04:14:33;;;;;;;17.87;16.00;;;16.50;99.90;;;;;;5013575;28;20446;-64
2021/09/27 04:17:27;;;;;;;17.30;15.37;;;16.50;99.90;;;;;;5013402;28;20496;-64
2021/09/27 04:20:23;;;;;;;21.23;15.67;;;16.30;99.90;;;;;;5013460;28;21001;-64
2021/09/27 04:23:16;;;;;;;17.27;15.50;;;16.40;99.90;;;;;;5004742;28;20458;-63
2021/09/27 04:26:07;;;;;;;18.27;16.53;;;16.40;99.90;;;;;;5013390;28;20430;-64
2021/09/27 04:29:00;;;;;;;16.90;15.20;;;16.20;99.90;;;;;;5012764;28;20513;-64
2021/09/27 04:31:49;;;;;;;17.37;15.50;;;16.10;99.90;;;;;;5013078;28;20819;-64
2021/09/27 04:34:29;;;;;;;16.63;14.93;;;16.00;99.90;;;;;;5002024;28;20517;-63
2021/09/27 04:36:56;;;;;;;16.50;14.90;;;16.00;99.90;;;;;;5012821;28;20484;-64
2021/09/27 04:39:26;;;;;;;16.80;15.20;;;16.00;99.90;;;;;;5012914;28;20426;-63
2021/09/27 04:42:03;;;;;;;16.80;15.30;;;15.90;99.90;;;;;;5013056;28;20434;-64
2021/09/27 04:44:47;;;;;;;17.87;16.17;;;15.90;99.90;;;;;;5012654;28;20468;-64
2021/09/27 04:47:29;;;;;;;16.80;15.20;;;15.80;99.90;;;;;;5012616;28;20465;-64
2021/09/27 04:50:22;;;;;;;19.87;17.80;;;15.70;99.90;;;;;;4999322;28;20426;-64
2021/09/27 04:53:20;;;;;;;16.50;15.00;;;15.60;99.90;;;;;;4986234;28;20440;-64
2021/09/27 04:56:16;;;;;;;17.27;15.47;;;15.50;99.90;;;;;;5011733;28;20433;-64
2021/09/27 04:59:09;;;;;;;17.77;15.90;;;15.40;99.90;;;;;;5012619;28;20457;-63
2021/09/27 05:01:36;;;;;;;15.90;14.40;;;15.30;99.90;;;;;;5012272;28;20465;-63
2021/09/27 05:04:21;;;;;;;17.10;15.30;;;15.20;99.90;;;;;;4995279;28;20449;-63
2021/09/27 05:06:58;;;;;;;17.80;15.80;;;15.20;99.90;;;;;;4999761;28;20418;-62
2021/09/27 05:09:39;;;;;;;20.50;18.40;;;15.20;99.90;;;;;;5012582;28;20405;-63
2021/09/27 05:12:19;;;;;;;18.87;16.87;;;15.10;99.90;;;;;;5012768;28;20409;-62
2021/09/27 05:14:53;;;;;;;17.63;15.80;;;15.00;99.90;;;;;;5012864;28;20821;-63
2021/09/27 05:17:30;;;;;;;17.90;16.17;;;15.00;99.90;;;;;;5012246;28;20461;-64
2021/09/27 05:20:20;;;;;;;23.43;18.87;;;15.00;99.90;;;;;;4997750;28;20763;-63
2021/09/27 05:22:54;;;;;;;19.10;16.90;;;14.90;99.90;;;;;;4993001;28;20439;-64
2021/09/27 05:25:23;;;;;;;18.63;16.73;;;14.80;99.90;;;;;;4992917;28;20422;-64
2021/09/27 05:28:07;;;;;;;19.43;16.57;;;14.80;99.90;;;;;;4992543;28;20431;-64
2021/09/27 05:30:49;;;;;;;20.17;18.07;;;14.80;99.90;;;;;;5005691;28;20421;-66
2021/09/27 05:33:36;;;;;;;18.50;16.70;;;14.80;99.90;;;;;;5010193;28;20860;-66
2021/09/27 05:36:30;;;;;;;18.83;16.93;;;14.80;99.90;;;;;;5011683;28;20421;-65
2021/09/27 05:39:16;;;;;;;17.30;15.47;;;14.90;99.90;;;;;;5012056;28;20413;-65
2021/09/27 05:42:12;;;;;;;18.10;16.20;;;14.90;99.90;;;;;;5011974;28;20456;-64
2021/09/27 05:44:40;;;;;;;17.60;15.80;;;14.90;99.90;;;;;;5006278;28;20414;-64
2021/09/27 05:47:36;;;;;;;18.80;16.90;;;15.00;99.90;;;;;;5009604;28;20456;-64
2021/09/27 05:50:07;;;;;;;18.17;16.27;;;15.00;99.90;;;;;;5011925;28;20427;-64
2021/09/27 05:53:08;;;;;;;19.20;16.87;;;15.10;99.90;;;;;;5012106;28;20438;-64
2021/09/27 05:55:41;;;;;;;17.63;15.83;;;15.20;99.90;;;;;;4999069;28;20437;-64
2021/09/27 05:58:53;;;;;;;18.73;16.13;;;15.40;99.90;;;;;;4992261;28;20457;-64
2021/09/27 06:01:44;;;;;;;17.90;15.93;;;15.40;99.90;;;;;;4993186;28;20426;-65
2021/09/27 06:04:25;;;;;;;17.47;15.80;;;15.50;99.90;;;;;;5008465;28;20472;-64
2021/09/27 06:07:35;;;;;;;16.60;14.90;;;15.70;99.90;;;;;;4992502;28;20411;-63
2021/09/27 06:10:28;;;;;;;19.53;16.70;;;15.90;99.90;;;;;;4990242;28;20478;-64
2021/09/27 06:13:11;;;;;;;18.50;14.67;;;16.00;99.90;;;;;;4992397;28;20431;-64
2021/09/27 06:15:41;;;;;;;18.70;16.30;;;16.20;99.90;;;;;;5007348;28;20814;-64
2021/09/27 06:18:24;;;;;;;17.43;15.17;;;16.30;99.90;;;;;;5011493;28;20830;-64
2021/09/27 06:21:06;;;;;;;17.33;14.40;;;16.50;99.90;;;;;;5020612;28;20474;-63
2021/09/27 06:24:13;;;;;;;17.80;14.90;;;16.50;99.90;;;;;;5031642;28;20432;-64
2021/09/27 06:26:47;;;;;;;14.77;12.67;;;16.70;99.90;;;;;;5011672;28;20456;-64
2021/09/27 06:29:41;;;;;;;17.03;14.60;;;16.80;99.90;;;;;;5011650;28;20446;-64
2021/09/27 06:32:29;;;;;;;14.87;13.53;;;17.00;99.90;;;;;;5011553;28;20568;-64
2021/09/27 06:34:59;;;;;;;15.67;14.10;;;17.20;99.90;;;;;;5011537;28;20996;-64
2021/09/27 06:37:27;;;;;;;15.30;13.63;;;17.50;99.90;;;;;;5010604;28;20973;-64
2021/09/27 06:39:54;;;;;;;20.63;14.43;;;17.70;99.90;;;;;;5011216;28;20429;-64
2021/09/27 06:42:19;;;;;;;14.33;13.03;;;17.70;99.90;;;;;;5010779;28;20432;-64
2021/09/27 06:44:46;;;;;;;16.30;13.20;;;17.80;99.90;;;;;;5011268;28;21113;-64
2021/09/27 06:47:13;;;;;;;15.03;13.63;;;17.90;99.90;;;;;;5011178;28;20429;-64
2021/09/27 06:49:39;;;;;;;15.50;13.87;;;17.90;99.90;;;;;;5011023;28;20974;-64
2021/09/27 06:52:05;;;;;;;13.73;12.43;;;17.80;99.90;;;;;;5010998;28;20429;-63
2021/09/27 06:54:30;;;;;;;14.37;12.87;;;17.80;99.90;;;;;;5009606;28;20710;-64
2021/09/27 06:56:56;;;;;;;14.67;13.27;;;17.90;99.90;;;;;;5011915;28;20253;-64
2021/09/27 06:59:22;;;;;;;13.23;12.03;;;18.20;99.90;;;;;;5014913;28;20167;-63
2021/09/27 07:01:50;;;;;;;11.70;10.70;;;18.30;99.90;;;;;;5014765;28;20178;-64
2021/09/27 07:04:16;;;;;;;12.87;11.50;;;18.60;99.90;;;;;;5015043;28;20258;-64
2021/09/27 07:06:42;;;;;;;14.20;11.37;;;18.70;99.90;;;;;;5015040;28;20449;-63
2021/09/27 07:09:07;;;;;;;11.53;10.20;;;18.60;99.90;;;;;;5014538;28;20922;-64
2021/09/27 07:11:33;;;;;;;12.67;11.53;;;18.60;99.90;;;;;;5014465;28;20183;-64
2021/09/27 07:13:59;;;;;;;11.30;10.40;;;18.60;99.90;;;;;;5014704;28;20405;-64
2021/09/27 07:16:24;;;;;;;12.37;11.10;;;18.70;99.90;;;;;;5014815;28;20171;-63
2021/09/27 07:18:50;;;;;;;12.57;11.40;;;18.50;99.90;;;;;;5010884;28;20206;-64
2021/09/27 07:21:15;;;;;;;12.17;11.07;;;18.40;99.90;;;;;;5014728;28;20174;-63
2021/09/27 07:23:41;;;;;;;11.47;10.33;;;18.70;99.90;;;;;;5014673;28;20197;-64
2021/09/27 07:26:14;;;;;;;11.90;10.90;;;18.80;99.90;;;;;;5010203;28;20176;-64
2021/09/27 07:28:41;;;;;;;12.03;10.93;;;19.10;99.90;;;;;;5010100;28;20267;-66
2021/09/27 07:31:07;;;;;;;13.87;12.60;;;19.40;99.90;;;;;;5012395;28;20813;-64
2021/09/27 07:33:34;;;;;;;14.30;12.37;;;19.50;99.90;;;;;;5012321;28;20844;-64
2021/09/27 07:36:00;;;;;;;10.50;9.47;;;19.70;99.90;;;;;;5013094;28;20501;-64
2021/09/27 07:38:26;;;;;;;13.77;12.47;;;19.90;99.90;;;;;;5013593;28;20461;-64
2021/09/27 07:40:53;;;;;;;11.70;10.60;;;20.00;99.90;;;;;;5016362;28;20455;-64
2021/09/27 07:43:19;;;;;;;10.83;9.63;;;20.20;99.90;;;;;;5006667;28;20752;-64
2021/09/27 07:45:46;;;;;;;9.70;8.80;;;20.40;99.90;;;;;;5010089;28;20529;-64
2021/09/27 07:48:13;;;;;;;10.27;9.30;;;20.60;99.90;;;;;;5012829;28;20201;-64
2021/09/27 07:50:44;;;;;;;10.73;9.73;;;20.80;99.90;;;;;;5013262;28;20524;-64
2021/09/27 07:53:11;;;;;;;10.47;9.10;;;21.00;99.90;;;;;;5009515;28;20456;-64
2021/09/27 07:55:37;;;;;;;11.10;9.90;;;21.30;99.90;;;;;;5013607;28;20433;-64
2021/09/27 07:58:03;;;;;;;10.33;9.30;;;21.30;99.90;;;;;;5013039;28;20572;-64
2021/09/27 08:00:29;;;;;;;11.50;8.97;;;21.30;99.90;;;;;;5011724;28;20607;-65
2021/09/27 08:02:55;;;;;;;10.40;9.40;;;21.60;99.90;;;;;;5013315;28;20190;-64
2021/09/27 08:05:26;;;;;;;9.10;8.30;;;21.70;99.90;;;;;;5013388;28;21068;-64
2021/09/27 08:07:52;;;;;;;9.70;8.27;;;22.00;99.90;;;;;;5012839;28;20429;-65
2021/09/27 08:10:20;;;;;;;9.07;8.27;;;22.10;99.90;;;;;;5013402;28;20433;-64
2021/09/27 08:12:46;;;;;;;8.20;7.50;;;22.00;99.90;;;;;;5013268;28;20449;-64
2021/09/27 08:15:21;;;;;;;8.27;7.57;;;22.10;99.90;;;;;;5008451;28;20585;-64
2021/09/27 08:17:49;;;;;;;7.67;7.03;;;22.40;99.90;;;;;;5002262;28;20285;-64
2021/09/27 08:20:17;;;;;;;7.40;6.90;;;23.00;99.90;;;;;;5013569;28;20791;-64
2021/09/27 08:22:43;;;;;;;8.37;6.87;;;23.20;99.90;;;;;;5013448;28;20446;-64
2021/09/27 08:25:10;;;;;;;6.70;6.03;;;23.40;99.90;;;;;;5013077;28;20444;-65
2021/09/27 08:27:36;;;;;;;7.13;6.53;;;23.60;99.90;;;;;;5012758;28;20440;-65
2021/09/27 08:30:02;;;;;;;7.60;6.90;;;23.70;99.90;;;;;;5011227;28;20809;-65
2021/09/27 08:32:28;;;;;;;8.30;6.50;;;23.80;99.90;;;;;;5013279;28;20202;-64
2021/09/27 08:34:54;;;;;;;6.07;5.67;;;24.20;99.90;;;;;;5013145;28;20480;-65
2021/09/27 08:37:21;;;;;;;7.40;6.73;;;24.70;99.90;;;;;;5012944;28;20206;-65
2021/09/27 08:39:48;;;;;;;7.23;6.63;;;24.80;99.90;;;;;;5013342;28;20181;-64
2021/09/27 08:42:26;;;;;;;6.03;5.60;;;25.20;99.90;;;;;;5013206;28;20843;-64
2021/09/27 08:44:54;;;;;;;7.50;5.23;;;25.40;99.90;;;;;;5003543;28;20488;-64
2021/09/27 08:47:35;;;;;;;5.57;5.07;;;25.40;99.90;;;;;;5012689;28;20445;-65
2021/09/27 08:50:21;;;;;;;5.80;5.33;;;25.80;99.90;;;;;;5013001;28;20430;-65
2021/09/27 08:52:46;;;;;;;5.40;5.00;;;26.10;99.90;;;;;;5018717;28;20959;-64
2021/09/27 08:55:14;;;;;;;5.20;4.80;;;25.90;99.90;;;;;;5012988;28;20426;-64
2021/09/27 08:58:01;;;;;;;6.63;5.30;;;25.80;99.90;;;;;;5012643;28;20206;-65
2021/09/27 09:00:36;;;;;;;4.63;4.23;;;26.30;99.90;;;;;;4993320;28;20429;-64
2021/09/27 09:03:21;;;;;;;4.50;4.10;;;26.00;99.90;;;;;;4993283;28;20441;-64
2021/09/27 09:06:08;;;;;;;5.30;4.90;;;25.50;99.90;;;;;;5012079;28;20433;-65
2021/09/27 09:08:54;;;;;;;5.37;4.87;;;26.00;99.90;;;;;;5012045;28;20437;-64
2021/09/27 09:11:45;;;;;;;4.87;4.57;;;25.80;99.90;;;;;;5012952;28;20836;-64
2021/09/27 09:14:16;;;;;;;5.03;4.63;;;25.90;99.90;;;;;;4993007;28;20446;-65
2021/09/27 09:16:43;;;;;;;4.90;4.50;;;27.00;99.90;;;;;;4992953;28;20815;-65
2021/09/27 09:19:12;;;;;;;4.67;4.37;;;28.20;98.30;;;;;;4992670;28;20463;-65
2021/09/27 09:22:08;;;;;;;4.40;4.10;;;28.50;97.20;;;;;;4992741;28;20450;-65
2021/09/27 09:24:38;;;;;;;4.90;4.40;;;29.40;96.30;;;;;;4999089;28;21041;-65
2021/09/27 09:27:09;;;;;;;4.80;4.40;;;29.40;94.70;;;;;;5011351;28;20436;-65
2021/09/27 09:29:38;;;;;;;5.40;5.00;;;30.10;93.10;;;;;;5011740;28;20441;-65
2021/09/27 09:32:20;;;;;;;4.80;4.50;;;29.90;92.80;;;;;;5012378;28;20422;-65
2021/09/27 09:34:48;;;;;;;4.60;4.30;;;29.70;91.70;;;;;;5005810;28;20456;-65
2021/09/27 09:37:35;;;;;;;4.13;3.87;;;30.50;90.60;;;;;;5011008;28;20473;-66
2021/09/27 09:40:25;;;;;;;4.70;4.40;;;31.90;87.30;;;;;;5001240;28;20433;-65
2021/09/27 09:43:10;;;;;;;4.50;4.27;;;32.50;82.40;;;;;;4992572;28;20466;-65
2021/09/27 09:45:40;;;;;;;6.10;4.63;;;33.10;79.80;;;;;;4996518;28;20782;-65
2021/09/27 09:48:16;;;;;;;4.30;4.03;;;33.10;76.10;;;;;;5010608;28;20969;-65
2021/09/27 09:50:42;;;;;;;3.90;3.67;;;33.60;73.00;;;;;;5012360;28;20805;-65
2021/09/27 09:53:27;;;;;;;4.33;4.03;;;34.20;69.70;;;;;;5010825;28;20457;-65
2021/09/27 09:55:58;;;;;;;4.20;3.90;;;33.50;69.00;;;;;;5012097;28;20429;-65
2021/09/27 09:58:41;;;;;;;4.93;4.63;;;32.30;70.70;;;;;;5009612;28;20549;-65
2021/09/27 10:01:25;;;;;;;4.93;4.57;;;32.60;70.60;;;;;;5012410;28;20429;-65
2021/09/27 10:03:57;;;;;;;4.97;4.47;;;30.90;72.90;;;;;;5022821;28;20528;-65
2021/09/27 10:06:29;;;;;;;4.60;4.30;;;30.30;74.70;;;;;;5006232;28;20427;-65
2021/09/27 10:08:58;;;;;;;4.93;4.63;;;30.70;74.10;;;;;;4992222;28;20425;-66
2021/09/27 10:11:50;;;;;;;4.87;4.57;;;32.60;72.00;;;;;;4992489;28;20994;-65
2021/09/27 10:14:20;;;;;;;4.47;4.17;;;34.70;66.40;;;;;;4999724;28;20487;-67
2021/09/27 10:16:52;;;;;;;4.37;4.17;;;34.50;65.90;;;;;;5011922;28;20624;-66
2021/09/27 10:19:23;;;;;;;4.30;4.00;;;35.40;63.40;;;;;;5011399;28;20434;-67
2021/09/27 10:21:55;;;;;;;4.07;3.80;;;35.00;60.80;;;;;;5011822;28;20512;-67
2021/09/27 10:24:30;;;;;;;8.37;3.93;;;33.80;60.30;;;;;;5000527;28;20450;-67
2021/09/27 10:26:58;;;;;;;4.43;4.07;;;32.20;62.80;;;;;;5001373;28;20435;-67
2021/09/27 10:29:27;;;;;;;4.00;3.30;;;32.00;64.90;;;;;;5006102;28;20509;-67
2021/09/27 10:31:59;;;;;;;3.70;3.37;;;32.90;62.80;;;;;;5012075;28;21203;-66
2021/09/27 10:34:28;;;;;;;3.53;3.33;;;32.10;61.20;;;;;;5014265;28;20465;-65
2021/09/27 10:37:05;;;;;;;4.00;3.70;;;31.30;64.10;;;;;;5006690;28;20505;-65
2021/09/27 10:39:31;;;;;;;3.30;3.10;;;31.40;63.30;;;;;;5008142;28;20433;-66
2021/09/27 10:42:07;;;;;;;3.90;3.60;;;31.80;60.90;;;;;;4996657;28;20541;-66
2021/09/27 10:44:54;;;;;;;3.73;3.40;;;31.00;61.40;;;;;;4995793;28;20430;-67
2021/09/27 10:47:28;;;;;;;3.93;3.53;;;28.10;66.00;;;;;;4996169;28;20445;-67
2021/09/27 10:50:15;;;;;;;3.10;2.90;;;26.70;74.00;;;;;;4995929;28;20410;-66
2021/09/27 10:52:49;;;;;;;3.90;3.60;;;26.60;73.20;;;;;;4995631;28;20474;-66
2021/09/27 10:55:18;;;;;;;3.63;3.33;;;27.60;72.60;;;;;;4995951;28;20773;-66
2021/09/27 10:57:53;;;;;;;3.60;3.20;;;28.30;71.50;;;;;;4995268;28;20545;-66
2021/09/27 11:00:35;;;;;;;3.57;3.30;;;28.90;70.70;;;;;;4995570;28;21034;-65
2021/09/27 11:03:31;;;;;;;2.77;2.67;;;30.80;67.80;;;;;;5012308;28;20446;-66
2021/09/27 11:06:18;;;;;;;3.30;3.10;;;32.70;61.50;;;;;;5014914;28;21017;-66
2021/09/27 11:09:01;;;;;;;3.47;3.20;;;33.10;59.00;;;;;;5014681;28;20424;-66
2021/09/27 11:11:29;;;;;;;3.33;3.13;;;31.60;60.50;;;;;;5014498;28;20421;-66
2021/09/27 11:14:19;;;;;;;3.70;3.40;;;31.80;61.70;;;;;;5014575;28;20457;-66
2021/09/27 11:16:53;;;;;;;4.03;3.20;;;32.20;60.50;;;;;;5010027;28;20437;-66
2021/09/27 11:19:31;;;;;;;3.17;2.97;;;33.80;58.50;;;;;;5014339;28;20457;-66
2021/09/27 11:21:57;;;;;;;2.93;2.73;;;33.20;57.80;;;;;;5014706;28;20457;-66
2021/09/27 11:24:45;;;;;;;5.30;3.40;;;32.70;57.80;;;;;;5013769;28;20992;-66
2021/09/27 11:27:17;;;;;;;3.03;2.83;;;31.10;59.70;;;;;;4995299;28;20431;-66
2021/09/27 11:29:54;;;;;;;6.87;6.47;;;32.60;59.60;;;;;;5014274;28;20520;-66
2021/09/27 11:32:22;;;;;;;4.17;3.87;;;34.00;56.70;;;;;;5014117;28;20481;-66
2021/09/27 11:35:06;;;;;;;3.30;3.00;;;32.60;58.40;;;;;;5014327;28;20442;-66
2021/09/27 11:37:55;;;;;;;3.40;3.00;;;31.60;58.90;;;;;;5012878;28;20797;-66
2021/09/27 11:40:23;;;;;;;3.17;2.97;;;30.70;61.00;;;;;;5014365;28;20422;-66
2021/09/27 11:43:05;;;;;;;3.60;3.30;;;29.40;63.00;;;;;;5013835;28;20978;-66
2021/09/27 11:45:35;;;;;;;3.73;3.43;;;28.70;64.40;;;;;;5014446;28;20456;-67
2021/09/27 11:48:10;;;;;;;3.23;3.03;;;28.90;65.50;;;;;;5014074;28;20467;-66
2021/09/27 11:50:47;;;;;;;3.73;3.43;;;29.60;64.90;;;;;;5014306;28;20521;-66
2021/09/27 11:53:35;;;;;;;3.33;3.07;;;29.90;62.80;;;;;;5012863;28;20934;-66
2021/09/27 11:56:18;;;;;;;4.53;3.47;;;29.40;63.90;;;;;;5013134;28;20433;-66
2021/09/27 11:58:53;;;;;;;3.30;3.10;;;29.20;65.80;;;;;;5013184;28;20468;-66
2021/09/27 12:01:30;;;;;;;3.53;3.20;;;28.90;64.30;;;;;;5013427;28;20434;-66
2021/09/27 12:04:02;;;;;;;3.30;3.10;;;29.80;63.30;;;;;;5012306;28;20449;-66
2021/09/27 12:06:38;;;;;;;4.03;3.00;;;29.30;64.60;;;;;;5011750;28;20480;-66
2021/09/27 12:09:10;;;;;;;3.30;3.00;;;29.50;63.30;;;;;;5015596;28;20426;-66
2021/09/27 12:11:50;;;;;;;3.07;2.87;;;29.90;63.40;;;;;;5014149;28;20460;-66
2021/09/27 12:14:20;;;;;;;3.40;3.10;;;29.00;64.70;;;;;;4994131;28;20434;-66
2021/09/27 12:16:50;;;;;;;4.80;2.80;;;28.50;65.20;;;;;;5010739;28;20434;-66
2021/09/27 12:19:22;;;;;;;3.53;3.23;;;27.90;66.20;;;;;;5012770;28;20450;-66
2021/09/27 12:21:54;;;;;;;2.97;2.77;;;27.50;68.20;;;;;;5011014;28;20477;-66
2021/09/27 12:24:25;;;;;;;3.63;3.43;;;27.30;68.80;;;;;;5013395;28;20449;-66
2021/09/27 12:27:12;;;;;;;3.87;3.47;;;27.50;70.10;;;;;;5013396;28;20422;-66
2021/09/27 12:30:03;;;;;;;3.00;2.80;;;27.10;69.40;;;;;;5013316;28;20825;-66
2021/09/27 12:32:36;;;;;;;5.60;3.50;;;27.20;70.50;;;;;;5013256;28;20520;-66
2021/09/27 12:35:36;;;;;;;3.53;3.33;;;27.90;69.90;;;;;;5013303;28;20453;-66
2021/09/27 12:38:03;;;;;;;3.43;3.23;;;28.60;68.20;;;;;;5009590;28;20863;-66
2021/09/27 12:40:51;;;;;;;4.03;3.73;;;29.40;68.20;;;;;;5012874;28;20426;-66
2021/09/27 12:43:20;;;;;;;10.90;3.37;;;29.30;67.50;;;;;;5012942;28;20481;-66
2021/09/27 12:45:49;;;;;;;3.37;3.07;;;29.00;67.00;;;;;;5013165;28;20418;-65
2021/09/27 12:48:21;;;;;;;3.83;3.63;;;28.30;67.70;;;;;;5012940;28;20509;-65
2021/09/27 12:51:04;;;;;;;4.20;3.60;;;27.10;70.60;;;;;;5012867;28;20434;-65
2021/09/27 12:54:04;;;;;;;3.83;3.47;;;26.60;73.00;;;;;;5012856;28;20436;-65
2021/09/27 12:56:32;;;;;;;3.93;3.50;;;26.10;75.10;;;;;;5006948;28;20436;-65
2021/09/27 12:59:13;;;;;;;3.50;3.30;;;26.20;74.90;;;;;;5012488;28;20465;-65
2021/09/27 13:01:44;;;;;;;3.70;3.40;;;26.10;76.50;;;;;;5012878;28;20416;-66
2021/09/27 13:04:21;;;;;;;3.73;3.40;;;26.10;77.00;;;;;;5012836;28;20521;-65
2021/09/27 13:06:54;;;;;;;3.93;3.53;;;26.60;76.20;;;;;;5012777;28;20418;-64
2021/09/27 13:09:27;;;;;;;3.30;3.10;;;26.80;74.70;;;;;;5011925;28;20936;-65
2021/09/27 13:12:10;;;;;;;2.83;2.63;;;26.80;75.30;;;;;;5012812;28;20171;-64
2021/09/27 13:14:42;;;;;;;3.20;2.43;;;26.70;75.20;;;;;;5012786;28;20438;-65
2021/09/27 13:17:16;;;;;;;3.77;3.47;;;26.10;76.10;;;;;;5012108;28;20466;-65
2021/09/27 13:19:51;;;;;;;3.10;2.90;;;25.60;77.80;;;;;;5012626;28;20413;-64
2021/09/27 13:22:26;;;;;;;4.23;3.30;;;25.70;78.30;;;;;;5000251;28;20524;-64
2021/09/27 13:25:01;;;;;;;5.03;3.77;;;25.40;79.30;;;;;;4997856;28;20792;-65